createdAt,value
2023-05-20T00:02:57.711Z,18.10
2023-05-20T00:08:00.556Z,18.04
2023-05-20T00:13:02.704Z,18.01
2023-05-20T00:18:04.846Z,17.98
2023-05-20T00:23:06.782Z,17.92
2023-05-20T00:28:08.341Z,17.88
2023-05-20T00:33:10.239Z,17.84
2023-05-20T00:38:11.820Z,17.79
2023-05-20T00:43:13.484Z,17.75
2023-05-20T00:48:15.291Z,17.70
2023-05-20T00:53:18.595Z,17.64
2023-05-20T00:58:20.169Z,17.59
2023-05-20T01:03:22.326Z,17.55
2023-05-20T01:08:25.838Z,17.51
2023-05-20T01:13:34.091Z,17.46
2023-05-20T01:18:38.747Z,17.41
2023-05-20T01:23:41.688Z,17.38
2023-05-20T01:28:43.877Z,17.34
2023-05-20T01:33:48.738Z,17.31
2023-05-20T01:38:50.931Z,17.29
2023-05-20T01:43:54.825Z,17.27
2023-05-20T01:48:56.447Z,17.24
2023-05-20T01:53:58.214Z,17.23
2023-05-20T01:58:59.784Z,17.22
2023-05-20T02:04:01.324Z,17.20
2023-05-20T02:09:04.444Z,17.17
2023-05-20T02:14:06.298Z,17.14
2023-05-20T02:19:12.845Z,17.12
2023-05-20T02:24:14.598Z,17.10
2023-05-20T02:29:16.252Z,17.08
2023-05-20T02:34:18.709Z,17.05
2023-05-20T02:39:20.656Z,17.03
2023-05-20T02:44:22.174Z,17.00
2023-05-20T02:49:24.382Z,16.97
2023-05-20T02:54:26.929Z,16.93
2023-05-20T02:59:28.466Z,16.90
2023-05-20T03:04:30.045Z,16.88
2023-05-20T03:09:32.443Z,16.84
2023-05-20T03:14:34.540Z,16.82
2023-05-20T03:19:36.124Z,16.78
2023-05-20T03:24:39.129Z,16.76
2023-05-20T03:29:41.002Z,16.74
2023-05-20T03:34:43.581Z,16.72
2023-05-20T03:39:45.174Z,16.69
2023-05-20T03:44:47.138Z,16.68
2023-05-20T03:49:51.014Z,16.64
2023-05-20T03:54:54.197Z,16.64
2023-05-20T03:59:56.099Z,16.64
2023-05-20T04:04:58.509Z,16.62
2023-05-20T04:10:00.240Z,16.62
2023-05-20T04:15:03.476Z,16.62
2023-05-20T04:20:12.246Z,16.62
2023-05-20T04:25:14.109Z,16.63
2023-05-20T04:30:18.973Z,16.65
2023-05-20T04:35:20.768Z,16.65
2023-05-20T04:40:24.619Z,16.69
2023-05-20T04:45:27.651Z,16.71
2023-05-20T04:50:29.524Z,16.74
2023-05-20T04:55:32.150Z,16.76
2023-05-20T05:00:34.468Z,16.77
2023-05-20T05:05:40.531Z,16.80
2023-05-20T05:10:42.176Z,16.85
2023-05-20T05:15:44.871Z,16.89
2023-05-20T05:20:47.000Z,16.92
2023-05-20T05:25:52.330Z,16.96
2023-05-20T05:30:55.963Z,17.01
2023-05-20T05:35:59.200Z,17.07
2023-05-20T05:41:01.311Z,17.10
2023-05-20T05:46:05.108Z,17.14
2023-05-20T05:51:07.500Z,17.19
2023-05-20T05:56:10.389Z,17.24
2023-05-20T06:01:12.400Z,17.29
2023-05-20T06:06:14.002Z,17.37
2023-05-20T06:11:15.765Z,17.42
2023-05-20T06:16:17.419Z,17.48
2023-05-20T06:21:19.177Z,17.53
2023-05-20T06:26:21.132Z,17.59
2023-05-20T06:31:22.792Z,17.63
2023-05-20T06:36:27.213Z,17.71
2023-05-20T06:41:28.851Z,17.78
2023-05-20T06:46:30.685Z,17.90
2023-05-20T06:51:38.749Z,17.98
2023-05-20T06:56:40.330Z,18.09
2023-05-20T07:01:41.991Z,18.22
2023-05-20T07:06:43.776Z,18.35
2023-05-20T07:11:45.505Z,18.48
2023-05-20T07:16:47.198Z,18.59
2023-05-20T07:21:50.096Z,18.69
2023-05-20T07:27:20.790Z,18.83
2023-05-20T07:32:22.548Z,18.97
2023-05-20T07:37:24.393Z,19.11
2023-05-20T07:42:26.506Z,19.23
2023-05-20T07:47:33.268Z,19.39
2023-05-20T07:52:44.121Z,19.54
2023-05-20T07:57:57.370Z,19.66
2023-05-20T08:03:00.011Z,19.80
2023-05-20T08:08:07.649Z,19.90
2023-05-20T08:13:20.270Z,20.09
2023-05-20T08:18:22.963Z,20.21
2023-05-20T08:23:25.376Z,20.34
2023-05-20T08:28:28.373Z,20.49
2023-05-20T08:33:30.006Z,20.63
2023-05-20T08:38:31.794Z,20.75
2023-05-20T08:43:33.555Z,20.91
2023-05-20T08:48:36.898Z,21.05
2023-05-20T08:53:39.607Z,21.17
2023-05-20T08:58:43.004Z,21.30
2023-05-20T09:03:44.528Z,21.43
2023-05-20T09:08:46.888Z,21.60
2023-05-20T09:13:50.296Z,21.76
2023-05-20T09:18:56.476Z,21.95
2023-05-20T09:24:01.465Z,22.10
2023-05-20T09:29:03.059Z,22.25
2023-05-20T09:34:04.682Z,22.41
2023-05-20T09:39:08.199Z,22.56
2023-05-20T09:44:09.996Z,22.72
2023-05-20T09:49:13.130Z,22.87
2023-05-20T09:54:17.759Z,22.98
2023-05-20T09:59:21.933Z,23.09
2023-05-20T10:04:26.021Z,23.21
2023-05-20T10:10:03.377Z,23.34
2023-05-20T10:15:05.082Z,23.49
2023-05-20T10:20:10.315Z,23.63
2023-05-20T10:25:25.272Z,23.80
2023-05-20T10:30:26.922Z,23.86
2023-05-20T10:35:28.776Z,23.89
2023-05-20T10:40:30.446Z,23.92
2023-05-20T10:45:32.889Z,23.97
2023-05-20T10:50:36.707Z,24.07
2023-05-20T10:55:40.016Z,24.12
2023-05-20T11:00:42.058Z,24.18
2023-05-20T11:05:46.319Z,24.25
2023-05-20T11:10:48.016Z,24.33
2023-05-20T11:15:50.037Z,24.45
2023-05-20T11:20:53.592Z,24.59
2023-05-20T11:25:56.878Z,24.72
2023-05-20T11:30:59.860Z,24.82
2023-05-20T11:36:02.504Z,24.92
2023-05-20T11:41:05.071Z,25.02
2023-05-20T11:46:06.700Z,25.10
2023-05-20T11:51:08.632Z,25.23
2023-05-20T11:56:10.224Z,25.36
2023-05-20T12:01:21.754Z,25.40
2023-05-20T12:06:24.208Z,25.39
2023-05-20T12:11:25.801Z,25.38
2023-05-20T12:16:27.455Z,25.38
2023-05-20T12:21:29.732Z,25.41
2023-05-20T12:26:31.565Z,25.41
2023-05-20T12:31:34.907Z,25.43
2023-05-20T12:36:37.686Z,25.45
2023-05-20T12:41:39.350Z,25.49
2023-05-20T12:46:41.010Z,25.48
2023-05-20T12:51:42.707Z,25.46
2023-05-20T12:56:47.456Z,25.44
2023-05-20T13:01:49.033Z,25.42
2023-05-20T13:06:50.775Z,25.45
2023-05-20T13:11:52.406Z,25.46
2023-05-20T13:16:55.105Z,25.53
2023-05-20T13:21:56.725Z,25.60
2023-05-20T13:26:58.717Z,25.71
2023-05-20T13:32:01.967Z,25.78
2023-05-20T13:37:03.737Z,25.80
2023-05-20T13:42:05.507Z,25.86
2023-05-20T13:47:07.152Z,25.90
2023-05-20T13:52:08.666Z,25.93
2023-05-20T13:57:10.580Z,26.01
2023-05-20T14:02:12.213Z,26.17
2023-05-20T14:07:13.878Z,26.35
2023-05-20T14:12:15.426Z,26.54
2023-05-20T14:17:16.955Z,26.72
2023-05-20T14:22:19.863Z,26.93
2023-05-20T14:27:21.395Z,27.14
2023-05-20T14:32:23.015Z,27.32
2023-05-20T14:37:24.583Z,27.41
2023-05-20T14:42:26.201Z,27.48
2023-05-20T14:47:27.813Z,27.54
2023-05-20T14:52:29.402Z,27.66
2023-05-20T14:57:30.966Z,27.79
2023-05-20T15:02:32.643Z,27.92
2023-05-20T15:07:34.385Z,27.96
2023-05-20T15:12:35.922Z,28.05
2023-05-20T15:17:37.474Z,28.21
2023-05-20T15:22:39.154Z,28.37
2023-05-20T15:27:42.171Z,28.55
2023-05-20T15:32:44.143Z,28.63
2023-05-20T15:37:45.765Z,28.64
2023-05-20T15:42:47.456Z,28.61
2023-05-20T15:47:49.251Z,28.53
2023-05-20T15:52:52.557Z,28.40
2023-05-20T15:57:54.185Z,28.33
2023-05-20T16:02:56.695Z,28.27
2023-05-20T16:07:58.357Z,28.26
2023-05-20T16:13:03.254Z,28.26
2023-05-20T16:18:05.472Z,28.25
2023-05-20T16:23:08.758Z,28.18
2023-05-20T16:28:10.412Z,28.13
2023-05-20T16:33:13.213Z,28.06
2023-05-20T16:38:14.950Z,28.07
2023-05-20T16:43:16.600Z,28.04
2023-05-20T16:48:18.212Z,28.02
2023-05-20T16:53:19.946Z,28.02
2023-05-20T16:58:21.611Z,28.01
2023-05-20T17:03:23.358Z,28.01
2023-05-20T17:08:24.992Z,28.01
2023-05-20T17:13:26.621Z,28.05
2023-05-20T17:18:28.148Z,28.04
2023-05-20T17:23:29.666Z,28.01
2023-05-20T17:28:31.275Z,27.96
2023-05-20T17:33:32.916Z,27.86
2023-05-20T17:38:34.508Z,27.75
2023-05-20T17:43:36.260Z,27.63
2023-05-20T17:48:37.990Z,27.45
2023-05-20T17:53:39.587Z,27.29
2023-05-20T17:58:41.202Z,27.13
2023-05-20T18:03:42.937Z,26.96
2023-05-20T18:08:44.837Z,26.80
2023-05-20T18:13:46.758Z,26.68
2023-05-20T18:18:48.380Z,26.55
2023-05-20T18:23:50.738Z,26.41
2023-05-20T18:28:52.280Z,26.27
2023-05-20T18:33:53.848Z,26.13
2023-05-20T18:38:56.206Z,26.00
2023-05-20T18:43:57.873Z,25.86
2023-05-20T18:48:59.454Z,25.71
2023-05-20T18:54:01.040Z,25.60
2023-05-20T18:59:02.802Z,25.50
2023-05-20T19:04:04.532Z,25.40
2023-05-20T19:09:06.352Z,25.32
2023-05-20T19:14:07.974Z,25.22
2023-05-20T19:19:09.665Z,25.12
2023-05-20T19:24:11.459Z,25.02
2023-05-20T19:29:15.019Z,24.91
2023-05-20T19:34:16.921Z,24.80
2023-05-20T19:39:18.656Z,24.68
2023-05-20T19:44:20.493Z,24.55
2023-05-20T19:49:22.074Z,24.42
2023-05-20T19:54:23.698Z,24.30
2023-05-20T19:59:25.766Z,24.20
2023-05-20T20:04:27.305Z,24.09
2023-05-20T20:09:29.311Z,23.98
2023-05-20T20:14:31.333Z,23.89
2023-05-20T20:19:33.982Z,23.78
2023-05-20T20:24:35.627Z,23.68
2023-05-20T20:29:37.155Z,23.58
2023-05-20T20:34:38.681Z,23.48
2023-05-20T20:39:40.899Z,23.39
2023-05-20T20:44:42.724Z,23.31
2023-05-20T20:49:44.287Z,23.22
2023-05-20T20:54:45.829Z,23.15
2023-05-20T20:59:47.781Z,23.08
2023-05-20T21:04:49.706Z,22.99
2023-05-20T21:09:54.939Z,22.91
2023-05-20T21:14:56.541Z,22.82
2023-05-20T21:19:58.099Z,22.76
2023-05-20T21:24:59.666Z,22.69
2023-05-20T21:30:01.305Z,22.63
2023-05-20T21:35:02.966Z,22.56
2023-05-20T21:40:05.234Z,22.48
2023-05-20T21:45:07.529Z,22.42
2023-05-20T21:50:09.677Z,22.37
2023-05-20T21:55:11.302Z,22.34
2023-05-20T22:00:15.167Z,22.29
2023-05-20T22:05:20.863Z,22.22
2023-05-20T22:10:23.486Z,22.16
2023-05-20T22:15:26.155Z,22.12
2023-05-20T22:20:28.699Z,22.10
2023-05-20T22:25:30.227Z,22.06
2023-05-20T22:30:31.807Z,22.02
2023-05-20T22:35:33.427Z,21.99
2023-05-20T22:40:35.248Z,21.98
2023-05-20T22:45:36.993Z,21.95
2023-05-20T22:50:38.660Z,21.89
2023-05-20T22:55:41.018Z,21.89
2023-05-20T23:00:44.351Z,21.84
2023-05-20T23:05:46.046Z,21.81
2023-05-20T23:10:47.656Z,21.76
2023-05-20T23:15:50.100Z,21.73
2023-05-20T23:20:51.639Z,21.70
2023-05-20T23:25:53.419Z,21.66
2023-05-20T23:30:54.992Z,21.63
2023-05-20T23:35:56.931Z,21.60
2023-05-20T23:40:58.501Z,21.58
2023-05-20T23:46:00.180Z,21.54
2023-05-20T23:51:02.109Z,21.53
2023-05-20T23:56:04.184Z,21.53
